sensor_id;sensor_type;location;lat;lon;timestamp;P1;durP1;ratioP1;P2;durP2;ratioP2
61785;SDS011;47692;53.714;11.372;2024-03-23T00:55:48;17.60;;;3.20;;
61785;SDS011;47692;53.714;11.372;2024-03-23T00:58:14;19.75;;;3.65;;
61785;SDS011;47692;53.714;11.372;2024-03-23T01:00:39;16.50;;;2.78;;
61785;SDS011;47692;53.714;11.372;2024-03-23T01:03:04;10.63;;;2.25;;
61785;SDS011;47692;53.714;11.372;2024-03-23T01:05:30;16.52;;;3.33;;
61785;SDS011;47692;53.714;11.372;2024-03-23T01:07:55;17.60;;;3.42;;
61785;SDS011;47692;53.714;11.372;2024-03-23T01:10:21;20.13;;;3.40;;
61785;SDS011;47692;53.714;11.372;2024-03-23T01:12:46;17.67;;;3.20;;
61785;SDS011;47692;53.714;11.372;2024-03-23T01:15:11;11.93;;;2.60;;
61785;SDS011;47692;53.714;11.372;2024-03-23T01:17:37;12.30;;;2.97;;
61785;SDS011;47692;53.714;11.372;2024-03-23T01:20:02;13.00;;;2.40;;
61785;SDS011;47692;53.714;11.372;2024-03-23T01:22:27;16.33;;;3.05;;
61785;SDS011;47692;53.714;11.372;2024-03-23T01:24:53;14.15;;;2.67;;
61785;SDS011;47692;53.714;11.372;2024-03-23T01:27:18;13.38;;;2.70;;
61785;SDS011;47692;53.714;11.372;2024-03-23T01:29:44;17.98;;;2.80;;
61785;SDS011;47692;53.714;11.372;2024-03-23T01:32:09;21.50;;;2.58;;
61785;SDS011;47692;53.714;11.372;2024-03-23T01:34:34;13.95;;;2.85;;
61785;SDS011;47692;53.714;11.372;2024-03-23T01:36:59;16.90;;;3.08;;
61785;SDS011;47692;53.714;11.372;2024-03-23T01:39:25;14.63;;;3.00;;
61785;SDS011;47692;53.714;11.372;2024-03-23T01:41:50;11.27;;;2.75;;
61785;SDS011;47692;53.714;11.372;2024-03-23T01:44:16;17.35;;;3.35;;
61785;SDS011;47692;53.714;11.372;2024-03-23T01:46:42;11.63;;;1.90;;
61785;SDS011;47692;53.714;11.372;2024-03-23T01:49:08;18.17;;;3.33;;
61785;SDS011;47692;53.714;11.372;2024-03-23T01:51:34;17.20;;;3.15;;
61785;SDS011;47692;53.714;11.372;2024-03-23T01:54:04;17.48;;;3.15;;
61785;SDS011;47692;53.714;11.372;2024-03-23T01:56:34;24.75;;;3.55;;
61785;SDS011;47692;53.714;11.372;2024-03-23T01:59:00;19.58;;;3.63;;
61785;SDS011;47692;53.714;11.372;2024-03-23T02:01:26;20.35;;;3.58;;
61785;SDS011;47692;53.714;11.372;2024-03-23T02:03:52;18.58;;;3.22;;
61785;SDS011;47692;53.714;11.372;2024-03-23T02:06:17;16.98;;;2.53;;
61785;SDS011;47692;53.714;11.372;2024-03-23T02:08:43;20.38;;;3.17;;
61785;SDS011;47692;53.714;11.372;2024-03-23T02:11:09;14.77;;;2.53;;
61785;SDS011;47692;53.714;11.372;2024-03-23T02:13:34;12.68;;;2.58;;
61785;SDS011;47692;53.714;11.372;2024-03-23T02:15:59;20.52;;;2.88;;
61785;SDS011;47692;53.714;11.372;2024-03-23T02:18:25;15.80;;;2.88;;
61785;SDS011;47692;53.714;11.372;2024-03-23T02:20:50;17.20;;;3.38;;
61785;SDS011;47692;53.714;11.372;2024-03-23T02:23:15;16.52;;;3.22;;
61785;SDS011;47692;53.714;11.372;2024-03-23T02:25:43;20.77;;;3.88;;
61785;SDS011;47692;53.714;11.372;2024-03-23T02:28:08;18.35;;;3.13;;
61785;SDS011;47692;53.714;11.372;2024-03-23T02:30:34;16.38;;;2.60;;
61785;SDS011;47692;53.714;11.372;2024-03-23T02:32:59;28.08;;;3.88;;
61785;SDS011;47692;53.714;11.372;2024-03-23T02:35:24;12.38;;;2.58;;
61785;SDS011;47692;53.714;11.372;2024-03-23T02:37:50;15.05;;;2.15;;
61785;SDS011;47692;53.714;11.372;2024-03-23T02:40:16;14.32;;;3.22;;
61785;SDS011;47692;53.714;11.372;2024-03-23T02:42:42;16.02;;;2.67;;
61785;SDS011;47692;53.714;11.372;2024-03-23T02:45:07;18.10;;;2.53;;
61785;SDS011;47692;53.714;11.372;2024-03-23T02:47:33;17.33;;;2.70;;
61785;SDS011;47692;53.714;11.372;2024-03-23T02:49:58;13.95;;;2.13;;
61785;SDS011;47692;53.714;11.372;2024-03-23T02:52:24;16.92;;;2.80;;
61785;SDS011;47692;53.714;11.372;2024-03-23T02:54:49;13.43;;;2.60;;
61785;SDS011;47692;53.714;11.372;2024-03-23T02:57:14;16.25;;;2.90;;
61785;SDS011;47692;53.714;11.372;2024-03-23T02:59:40;15.27;;;2.60;;
61785;SDS011;47692;53.714;11.372;2024-03-23T03:02:05;21.30;;;2.88;;
61785;SDS011;47692;53.714;11.372;2024-03-23T03:04:31;15.65;;;2.83;;
61785;SDS011;47692;53.714;11.372;2024-03-23T03:06:57;12.07;;;2.35;;
61785;SDS011;47692;53.714;11.372;2024-03-23T03:09:22;14.07;;;2.42;;
61785;SDS011;47692;53.714;11.372;2024-03-23T03:11:48;14.50;;;3.10;;
61785;SDS011;47692;53.714;11.372;2024-03-23T03:14:13;13.68;;;2.45;;
61785;SDS011;47692;53.714;11.372;2024-03-23T03:16:38;16.63;;;3.42;;
61785;SDS011;47692;53.714;11.372;2024-03-23T03:19:04;13.52;;;2.22;;
61785;SDS011;47692;53.714;11.372;2024-03-23T03:21:29;15.75;;;2.63;;
61785;SDS011;47692;53.714;11.372;2024-03-23T03:23:54;12.45;;;1.95;;
61785;SDS011;47692;53.714;11.372;2024-03-23T03:26:21;16.05;;;2.90;;
61785;SDS011;47692;53.714;11.372;2024-03-23T03:28:47;16.65;;;2.28;;
61785;SDS011;47692;53.714;11.372;2024-03-23T03:31:17;9.57;;;1.95;;
61785;SDS011;47692;53.714;11.372;2024-03-23T03:33:43;17.27;;;2.83;;
61785;SDS011;47692;53.714;11.372;2024-03-23T03:36:09;17.80;;;3.30;;
61785;SDS011;47692;53.714;11.372;2024-03-23T03:38:35;13.13;;;2.50;;
61785;SDS011;47692;53.714;11.372;2024-03-23T03:41:01;13.05;;;2.70;;
61785;SDS011;47692;53.714;11.372;2024-03-23T03:43:27;12.85;;;2.40;;
61785;SDS011;47692;53.714;11.372;2024-03-23T03:45:53;19.13;;;2.65;;
61785;SDS011;47692;53.714;11.372;2024-03-23T03:48:19;11.27;;;2.40;;
61785;SDS011;47692;53.714;11.372;2024-03-23T03:50:44;13.93;;;2.53;;
61785;SDS011;47692;53.714;11.372;2024-03-23T03:53:09;19.73;;;2.88;;
61785;SDS011;47692;53.714;11.372;2024-03-23T03:55:35;13.40;;;2.40;;
61785;SDS011;47692;53.714;11.372;2024-03-23T03:58:00;17.60;;;2.45;;
61785;SDS011;47692;53.714;11.372;2024-03-23T04:00:25;13.45;;;2.45;;
61785;SDS011;47692;53.714;11.372;2024-03-23T04:02:51;17.92;;;2.58;;
61785;SDS011;47692;53.714;11.372;2024-03-23T04:05:16;20.70;;;3.08;;
61785;SDS011;47692;53.714;11.372;2024-03-23T04:07:42;20.35;;;2.67;;
61785;SDS011;47692;53.714;11.372;2024-03-23T04:10:07;22.02;;;2.17;;
61785;SDS011;47692;53.714;11.372;2024-03-23T04:12:33;19.90;;;2.65;;
61785;SDS011;47692;53.714;11.372;2024-03-23T04:15:02;16.73;;;2.65;;
61785;SDS011;47692;53.714;11.372;2024-03-23T04:17:29;19.50;;;2.80;;
61785;SDS011;47692;53.714;11.372;2024-03-23T04:19:57;14.45;;;2.47;;
61785;SDS011;47692;53.714;11.372;2024-03-23T04:22:23;22.20;;;2.88;;
61785;SDS011;47692;53.714;11.372;2024-03-23T04:24:51;13.05;;;2.88;;
61785;SDS011;47692;53.714;11.372;2024-03-23T04:27:17;11.13;;;3.03;;
61785;SDS011;47692;53.714;11.372;2024-03-23T04:29:46;22.40;;;2.83;;
61785;SDS011;47692;53.714;11.372;2024-03-23T04:32:12;14.35;;;2.00;;
61785;SDS011;47692;53.714;11.372;2024-03-23T04:34:39;12.80;;;2.50;;
61785;SDS011;47692;53.714;11.372;2024-03-23T04:37:04;18.33;;;2.92;;
61785;SDS011;47692;53.714;11.372;2024-03-23T04:39:29;13.88;;;2.38;;
61785;SDS011;47692;53.714;11.372;2024-03-23T04:41:55;9.80;;;1.98;;
61785;SDS011;47692;53.714;11.372;2024-03-23T04:44:20;15.15;;;2.60;;
61785;SDS011;47692;53.714;11.372;2024-03-23T04:46:46;12.00;;;1.83;;
61785;SDS011;47692;53.714;11.372;2024-03-23T04:49:11;18.27;;;3.78;;
61785;SDS011;47692;53.714;11.372;2024-03-23T04:51:36;14.27;;;2.35;;
61785;SDS011;47692;53.714;11.372;2024-03-23T04:54:06;20.88;;;2.50;;
61785;SDS011;47692;53.714;11.372;2024-03-23T04:56:32;12.43;;;2.28;;
61785;SDS011;47692;53.714;11.372;2024-03-23T04:58:58;18.73;;;2.45;;
61785;SDS011;47692;53.714;11.372;2024-03-23T05:01:26;18.42;;;2.75;;
61785;SDS011;47692;53.714;11.372;2024-03-23T05:03:52;12.80;;;2.90;;
61785;SDS011;47692;53.714;11.372;2024-03-23T05:06:18;22.33;;;2.85;;
61785;SDS011;47692;53.714;11.372;2024-03-23T05:08:43;14.38;;;2.38;;
61785;SDS011;47692;53.714;11.372;2024-03-23T05:11:09;20.45;;;2.55;;
61785;SDS011;47692;53.714;11.372;2024-03-23T05:13:34;13.88;;;2.50;;
61785;SDS011;47692;53.714;11.372;2024-03-23T05:15:59;18.70;;;2.97;;
61785;SDS011;47692;53.714;11.372;2024-03-23T05:18:25;16.58;;;2.42;;
61785;SDS011;47692;53.714;11.372;2024-03-23T05:20:55;19.73;;;2.63;;
61785;SDS011;47692;53.714;11.372;2024-03-23T05:23:24;19.73;;;2.80;;
61785;SDS011;47692;53.714;11.372;2024-03-23T05:25:50;11.88;;;2.30;;
61785;SDS011;47692;53.714;11.372;2024-03-23T05:28:16;13.35;;;2.58;;
61785;SDS011;47692;53.714;11.372;2024-03-23T05:30:42;13.50;;;2.20;;
61785;SDS011;47692;53.714;11.372;2024-03-23T05:33:07;15.25;;;2.70;;
61785;SDS011;47692;53.714;11.372;2024-03-23T05:35:32;16.40;;;2.65;;
61785;SDS011;47692;53.714;11.372;2024-03-23T05:37:58;16.90;;;2.70;;
61785;SDS011;47692;53.714;11.372;2024-03-23T05:40:23;15.15;;;2.85;;
61785;SDS011;47692;53.714;11.372;2024-03-23T05:42:50;14.20;;;2.40;;
61785;SDS011;47692;53.714;11.372;2024-03-23T05:45:18;26.20;;;2.83;;
61785;SDS011;47692;53.714;11.372;2024-03-23T05:47:44;12.93;;;3.00;;
61785;SDS011;47692;53.714;11.372;2024-03-23T05:50:09;19.08;;;3.63;;
61785;SDS011;47692;53.714;11.372;2024-03-23T05:52:37;17.05;;;3.08;;
61785;SDS011;47692;53.714;11.372;2024-03-23T05:55:03;16.15;;;3.38;;
61785;SDS011;47692;53.714;11.372;2024-03-23T05:57:29;17.40;;;3.85;;
61785;SDS011;47692;53.714;11.372;2024-03-23T05:59:54;22.02;;;3.53;;
61785;SDS011;47692;53.714;11.372;2024-03-23T06:02:20;19.20;;;2.75;;
61785;SDS011;47692;53.714;11.372;2024-03-23T06:04:45;16.17;;;2.85;;
61785;SDS011;47692;53.714;11.372;2024-03-23T06:07:11;13.68;;;2.67;;
61785;SDS011;47692;53.714;11.372;2024-03-23T06:09:39;17.25;;;3.40;;
61785;SDS011;47692;53.714;11.372;2024-03-23T06:12:05;19.30;;;3.53;;
61785;SDS011;47692;53.714;11.372;2024-03-23T06:14:30;20.15;;;4.07;;
61785;SDS011;47692;53.714;11.372;2024-03-23T06:16:55;17.63;;;2.70;;
61785;SDS011;47692;53.714;11.372;2024-03-23T06:19:21;20.35;;;3.00;;
61785;SDS011;47692;53.714;11.372;2024-03-23T06:21:46;13.95;;;3.45;;
61785;SDS011;47692;53.714;11.372;2024-03-23T06:24:11;18.52;;;3.20;;
61785;SDS011;47692;53.714;11.372;2024-03-23T06:26:37;18.52;;;3.10;;
61785;SDS011;47692;53.714;11.372;2024-03-23T06:29:03;18.20;;;2.78;;
61785;SDS011;47692;53.714;11.372;2024-03-23T06:31:30;20.02;;;3.15;;
61785;SDS011;47692;53.714;11.372;2024-03-23T06:33:55;20.52;;;3.28;;
61785;SDS011;47692;53.714;11.372;2024-03-23T06:36:20;21.15;;;4.07;;
61785;SDS011;47692;53.714;11.372;2024-03-23T06:38:46;21.02;;;3.72;;
61785;SDS011;47692;53.714;11.372;2024-03-23T06:41:11;17.65;;;3.70;;
61785;SDS011;47692;53.714;11.372;2024-03-23T06:43:36;18.15;;;3.42;;
61785;SDS011;47692;53.714;11.372;2024-03-23T06:46:02;16.98;;;3.55;;
61785;SDS011;47692;53.714;11.372;2024-03-23T06:48:29;25.70;;;4.15;;
61785;SDS011;47692;53.714;11.372;2024-03-23T06:50:57;10.85;;;3.10;;
61785;SDS011;47692;53.714;11.372;2024-03-23T06:53:23;17.77;;;3.58;;
61785;SDS011;47692;53.714;11.372;2024-03-23T06:55:52;18.70;;;3.35;;
61785;SDS011;47692;53.714;11.372;2024-03-23T06:58:21;19.15;;;3.60;;
61785;SDS011;47692;53.714;11.372;2024-03-23T07:00:48;17.52;;;4.53;;
61785;SDS011;47692;53.714;11.372;2024-03-23T07:03:14;20.10;;;4.88;;
61785;SDS011;47692;53.714;11.372;2024-03-23T07:05:40;18.52;;;4.57;;
61785;SDS011;47692;53.714;11.372;2024-03-23T07:08:05;19.20;;;4.35;;
61785;SDS011;47692;53.714;11.372;2024-03-23T07:10:31;17.48;;;4.07;;
61785;SDS011;47692;53.714;11.372;2024-03-23T07:12:56;15.27;;;3.58;;
61785;SDS011;47692;53.714;11.372;2024-03-23T07:15:21;19.50;;;4.63;;
61785;SDS011;47692;53.714;11.372;2024-03-23T07:17:47;16.58;;;3.80;;
61785;SDS011;47692;53.714;11.372;2024-03-23T07:20:13;18.77;;;3.63;;
61785;SDS011;47692;53.714;11.372;2024-03-23T07:22:38;20.13;;;3.60;;
61785;SDS011;47692;53.714;11.372;2024-03-23T07:25:04;15.45;;;3.42;;
61785;SDS011;47692;53.714;11.372;2024-03-23T07:27:30;14.55;;;3.60;;
61785;SDS011;47692;53.714;11.372;2024-03-23T07:29:55;24.08;;;3.50;;
61785;SDS011;47692;53.714;11.372;2024-03-23T07:32:21;20.13;;;3.85;;
61785;SDS011;47692;53.714;11.372;2024-03-23T07:34:46;20.95;;;4.90;;
61785;SDS011;47692;53.714;11.372;2024-03-23T07:37:11;17.98;;;3.70;;
61785;SDS011;47692;53.714;11.372;2024-03-23T07:39:37;23.15;;;4.82;;
61785;SDS011;47692;53.714;11.372;2024-03-23T07:42:02;19.75;;;4.72;;
61785;SDS011;47692;53.714;11.372;2024-03-23T07:44:28;20.70;;;3.90;;
61785;SDS011;47692;53.714;11.372;2024-03-23T07:46:53;18.83;;;4.30;;
61785;SDS011;47692;53.714;11.372;2024-03-23T07:49:18;19.85;;;4.25;;
61785;SDS011;47692;53.714;11.372;2024-03-23T07:51:44;17.85;;;3.88;;
61785;SDS011;47692;53.714;11.372;2024-03-23T07:54:09;21.02;;;4.10;;
61785;SDS011;47692;53.714;11.372;2024-03-23T07:56:35;16.13;;;3.45;;
61785;SDS011;47692;53.714;11.372;2024-03-23T07:59:00;18.98;;;4.15;;
61785;SDS011;47692;53.714;11.372;2024-03-23T08:01:28;25.52;;;4.88;;
61785;SDS011;47692;53.714;11.372;2024-03-23T08:03:53;20.98;;;4.28;;
61785;SDS011;47692;53.714;11.372;2024-03-23T08:06:19;18.80;;;3.53;;
61785;SDS011;47692;53.714;11.372;2024-03-23T08:08:48;21.85;;;4.30;;
61785;SDS011;47692;53.714;11.372;2024-03-23T08:11:15;18.95;;;4.38;;
61785;SDS011;47692;53.714;11.372;2024-03-23T08:13:41;32.20;;;6.25;;
61785;SDS011;47692;53.714;11.372;2024-03-23T08:16:07;18.27;;;3.45;;
61785;SDS011;47692;53.714;11.372;2024-03-23T08:18:39;17.73;;;3.38;;
61785;SDS011;47692;53.714;11.372;2024-03-23T08:21:05;16.73;;;3.50;;
61785;SDS011;47692;53.714;11.372;2024-03-23T08:23:32;14.38;;;3.60;;
61785;SDS011;47692;53.714;11.372;2024-03-23T08:26:00;16.90;;;3.70;;
61785;SDS011;47692;53.714;11.372;2024-03-23T08:28:27;14.95;;;4.00;;
61785;SDS011;47692;53.714;11.372;2024-03-23T08:30:53;17.80;;;4.63;;
61785;SDS011;47692;53.714;11.372;2024-03-23T08:33:19;16.63;;;3.70;;
61785;SDS011;47692;53.714;11.372;2024-03-23T08:35:55;15.77;;;4.20;;
61785;SDS011;47692;53.714;11.372;2024-03-23T08:38:26;14.67;;;3.63;;
61785;SDS011;47692;53.714;11.372;2024-03-23T08:41:02;14.98;;;3.78;;
61785;SDS011;47692;53.714;11.372;2024-03-23T08:43:29;16.80;;;3.58;;
61785;SDS011;47692;53.714;11.372;2024-03-23T08:46:02;12.68;;;3.75;;
61785;SDS011;47692;53.714;11.372;2024-03-23T08:48:28;19.75;;;4.00;;
61785;SDS011;47692;53.714;11.372;2024-03-23T08:53:29;22.27;;;4.47;;
61785;SDS011;47692;53.714;11.372;2024-03-23T08:55:55;14.65;;;4.72;;
61785;SDS011;47692;53.714;11.372;2024-03-23T08:58:23;13.60;;;3.38;;
61785;SDS011;47692;53.714;11.372;2024-03-23T09:00:49;17.33;;;3.75;;
61785;SDS011;47692;53.714;11.372;2024-03-23T09:03:14;15.55;;;3.08;;
61785;SDS011;47692;53.714;11.372;2024-03-23T09:05:40;13.43;;;3.28;;
61785;SDS011;47692;53.714;11.372;2024-03-23T09:08:05;15.27;;;3.25;;
61785;SDS011;47692;53.714;11.372;2024-03-23T09:10:31;12.02;;;4.45;;
61785;SDS011;47692;53.714;11.372;2024-03-23T09:12:57;16.80;;;4.13;;
61785;SDS011;47692;53.714;11.372;2024-03-23T09:15:22;16.77;;;4.15;;
61785;SDS011;47692;53.714;11.372;2024-03-23T09:17:47;12.15;;;3.20;;
61785;SDS011;47692;53.714;11.372;2024-03-23T09:20:13;12.50;;;3.47;;
61785;SDS011;47692;53.714;11.372;2024-03-23T09:22:38;11.20;;;2.47;;
61785;SDS011;47692;53.714;11.372;2024-03-23T09:25:03;10.45;;;2.92;;
61785;SDS011;47692;53.714;11.372;2024-03-23T09:27:30;15.15;;;4.05;;
61785;SDS011;47692;53.714;11.372;2024-03-23T09:29:55;20.52;;;3.78;;
61785;SDS011;47692;53.714;11.372;2024-03-23T09:32:21;12.85;;;3.38;;
61785;SDS011;47692;53.714;11.372;2024-03-23T09:34:46;13.73;;;2.90;;
61785;SDS011;47692;53.714;11.372;2024-03-23T09:37:11;12.30;;;3.00;;
61785;SDS011;47692;53.714;11.372;2024-03-23T09:39:36;12.60;;;3.08;;
61785;SDS011;47692;53.714;11.372;2024-03-23T09:42:02;12.80;;;3.03;;
61785;SDS011;47692;53.714;11.372;2024-03-23T09:44:27;13.15;;;3.55;;
61785;SDS011;47692;53.714;11.372;2024-03-23T09:46:54;12.48;;;3.38;;
61785;SDS011;47692;53.714;11.372;2024-03-23T09:49:20;17.10;;;3.22;;
61785;SDS011;47692;53.714;11.372;2024-03-23T09:51:46;16.40;;;2.95;;
61785;SDS011;47692;53.714;11.372;2024-03-23T09:54:11;11.45;;;3.22;;
61785;SDS011;47692;53.714;11.372;2024-03-23T09:56:37;8.40;;;2.13;;
61785;SDS011;47692;53.714;11.372;2024-03-23T09:59:02;7.47;;;2.22;;
61785;SDS011;47692;53.714;11.372;2024-03-23T10:01:30;7.75;;;2.53;;
61785;SDS011;47692;53.714;11.372;2024-03-23T10:03:56;9.98;;;2.60;;
61785;SDS011;47692;53.714;11.372;2024-03-23T10:06:22;14.88;;;2.20;;
61785;SDS011;47692;53.714;11.372;2024-03-23T10:08:49;10.25;;;2.58;;
61785;SDS011;47692;53.714;11.372;2024-03-23T10:11:15;6.97;;;1.88;;
61785;SDS011;47692;53.714;11.372;2024-03-23T10:13:42;8.68;;;1.88;;
61785;SDS011;47692;53.714;11.372;2024-03-23T10:16:09;6.53;;;2.03;;
61785;SDS011;47692;53.714;11.372;2024-03-23T10:18:38;8.65;;;1.95;;
61785;SDS011;47692;53.714;11.372;2024-03-23T10:21:08;6.13;;;2.05;;
61785;SDS011;47692;53.714;11.372;2024-03-23T10:23:36;13.88;;;2.05;;
61785;SDS011;47692;53.714;11.372;2024-03-23T10:28:38;11.98;;;3.00;;
61785;SDS011;47692;53.714;11.372;2024-03-23T10:31:16;7.30;;;2.28;;
61785;SDS011;47692;53.714;11.372;2024-03-23T10:33:48;7.38;;;1.77;;
61785;SDS011;47692;53.714;11.372;2024-03-23T10:38:40;10.75;;;1.75;;
61785;SDS011;47692;53.714;11.372;2024-03-23T10:41:06;6.85;;;1.67;;
61785;SDS011;47692;53.714;11.372;2024-03-23T10:43:34;10.07;;;2.05;;
61785;SDS011;47692;53.714;11.372;2024-03-23T10:45:59;8.57;;;2.00;;
61785;SDS011;47692;53.714;11.372;2024-03-23T10:48:25;7.70;;;1.88;;
61785;SDS011;47692;53.714;11.372;2024-03-23T10:50:50;9.27;;;1.50;;
61785;SDS011;47692;53.714;11.372;2024-03-23T10:53:15;5.18;;;1.75;;
61785;SDS011;47692;53.714;11.372;2024-03-23T10:55:42;7.60;;;1.48;;
61785;SDS011;47692;53.714;11.372;2024-03-23T10:58:08;9.57;;;1.52;;
61785;SDS011;47692;53.714;11.372;2024-03-23T11:00:37;7.93;;;1.60;;
61785;SDS011;47692;53.714;11.372;2024-03-23T11:06:01;6.80;;;1.40;;
61785;SDS011;47692;53.714;11.372;2024-03-23T11:11:19;6.72;;;1.23;;
61785;SDS011;47692;53.714;11.372;2024-03-23T11:13:49;11.65;;;1.80;;
61785;SDS011;47692;53.714;11.372;2024-03-23T11:16:16;7.40;;;2.05;;
61785;SDS011;47692;53.714;11.372;2024-03-23T11:18:47;11.80;;;1.50;;
61785;SDS011;47692;53.714;11.372;2024-03-23T11:21:51;7.32;;;1.45;;
61785;SDS011;47692;53.714;11.372;2024-03-23T11:24:16;7.10;;;1.67;;
61785;SDS011;47692;53.714;11.372;2024-03-23T11:26:41;5.25;;;1.70;;
61785;SDS011;47692;53.714;11.372;2024-03-23T11:29:13;3.72;;;1.10;;
61785;SDS011;47692;53.714;11.372;2024-03-23T11:31:50;5.45;;;1.08;;
61785;SDS011;47692;53.714;11.372;2024-03-23T11:34:17;3.45;;;1.00;;
61785;SDS011;47692;53.714;11.372;2024-03-23T11:36:43;4.57;;;1.30;;
61785;SDS011;47692;53.714;11.372;2024-03-23T11:39:15;5.05;;;1.13;;
61785;SDS011;47692;53.714;11.372;2024-03-23T11:41:55;8.63;;;1.63;;
61785;SDS011;47692;53.714;11.372;2024-03-23T11:44:22;6.40;;;1.13;;
61785;SDS011;47692;53.714;11.372;2024-03-23T11:46:52;8.65;;;1.67;;
61785;SDS011;47692;53.714;11.372;2024-03-23T11:49:24;9.98;;;1.80;;
61785;SDS011;47692;53.714;11.372;2024-03-23T11:51:51;9.35;;;2.45;;
61785;SDS011;47692;53.714;11.372;2024-03-23T11:54:19;9.50;;;2.65;;
61785;SDS011;47692;53.714;11.372;2024-03-23T11:56:58;10.27;;;2.08;;
61785;SDS011;47692;53.714;11.372;2024-03-23T11:59:32;8.85;;;1.85;;
61785;SDS011;47692;53.714;11.372;2024-03-23T12:02:01;7.28;;;2.05;;
61785;SDS011;47692;53.714;11.372;2024-03-23T12:04:32;9.15;;;1.88;;
61785;SDS011;47692;53.714;11.372;2024-03-23T12:07:14;9.75;;;2.40;;
61785;SDS011;47692;53.714;11.372;2024-03-23T12:09:39;9.85;;;1.83;;
61785;SDS011;47692;53.714;11.372;2024-03-23T12:15:01;5.78;;;1.48;;
61785;SDS011;47692;53.714;11.372;2024-03-23T12:17:28;6.43;;;1.55;;
61785;SDS011;47692;53.714;11.372;2024-03-23T12:19:54;2.58;;;1.13;;
61785;SDS011;47692;53.714;11.372;2024-03-23T12:22:22;2.00;;;0.80;;
61785;SDS011;47692;53.714;11.372;2024-03-23T12:24:48;2.42;;;0.75;;
61785;SDS011;47692;53.714;11.372;2024-03-23T12:27:14;4.05;;;1.00;;
61785;SDS011;47692;53.714;11.372;2024-03-23T12:29:40;3.88;;;0.90;;
61785;SDS011;47692;53.714;11.372;2024-03-23T12:32:11;3.28;;;0.95;;
61785;SDS011;47692;53.714;11.372;2024-03-23T12:34:37;3.72;;;1.00;;
61785;SDS011;47692;53.714;11.372;2024-03-23T12:37:02;7.15;;;1.40;;
61785;SDS011;47692;53.714;11.372;2024-03-23T12:39:27;3.65;;;1.10;;
61785;SDS011;47692;53.714;11.372;2024-03-23T12:41:53;5.85;;;0.80;;
61785;SDS011;47692;53.714;11.372;2024-03-23T12:44:18;4.57;;;0.90;;
61785;SDS011;47692;53.714;11.372;2024-03-23T12:46:44;3.08;;;0.52;;
61785;SDS011;47692;53.714;11.372;2024-03-23T12:49:10;3.33;;;0.80;;
61785;SDS011;47692;53.714;11.372;2024-03-23T12:51:36;3.33;;;1.15;;
61785;SDS011;47692;53.714;11.372;2024-03-23T12:54:01;5.97;;;1.20;;
61785;SDS011;47692;53.714;11.372;2024-03-23T12:56:27;4.78;;;0.80;;
61785;SDS011;47692;53.714;11.372;2024-03-23T12:58:55;5.30;;;1.40;;
61785;SDS011;47692;53.714;11.372;2024-03-23T13:01:25;4.25;;;1.40;;
61785;SDS011;47692;53.714;11.372;2024-03-23T13:03:51;3.95;;;0.98;;
61785;SDS011;47692;53.714;11.372;2024-03-23T13:06:17;2.45;;;0.68;;
61785;SDS011;47692;53.714;11.372;2024-03-23T13:08:46;2.10;;;0.80;;
61785;SDS011;47692;53.714;11.372;2024-03-23T13:11:11;2.75;;;1.08;;
61785;SDS011;47692;53.714;11.372;2024-03-23T13:13:38;2.47;;;0.80;;
61785;SDS011;47692;53.714;11.372;2024-03-23T13:16:03;7.28;;;1.10;;
61785;SDS011;47692;53.714;11.372;2024-03-23T13:18:30;4.35;;;1.30;;
61785;SDS011;47692;53.714;11.372;2024-03-23T13:20:56;4.40;;;1.10;;
61785;SDS011;47692;53.714;11.372;2024-03-23T13:23:22;2.13;;;1.00;;
61785;SDS011;47692;53.714;11.372;2024-03-23T13:25:54;2.38;;;0.70;;
61785;SDS011;47692;53.714;11.372;2024-03-23T13:28:21;3.13;;;0.70;;
61785;SDS011;47692;53.714;11.372;2024-03-23T13:30:53;3.28;;;0.80;;
61785;SDS011;47692;53.714;11.372;2024-03-23T13:33:19;3.25;;;0.88;;
61785;SDS011;47692;53.714;11.372;2024-03-23T13:35:54;2.72;;;0.60;;
61785;SDS011;47692;53.714;11.372;2024-03-23T13:38:21;4.30;;;1.00;;
61785;SDS011;47692;53.714;11.372;2024-03-23T13:40:50;3.10;;;0.85;;
61785;SDS011;47692;53.714;11.372;2024-03-23T13:43:20;2.67;;;0.93;;
61785;SDS011;47692;53.714;11.372;2024-03-23T13:45:49;1.92;;;1.13;;
61785;SDS011;47692;53.714;11.372;2024-03-23T13:48:22;4.05;;;1.00;;
61785;SDS011;47692;53.714;11.372;2024-03-23T13:51:01;2.53;;;0.70;;
61785;SDS011;47692;53.714;11.372;2024-03-23T13:53:30;1.58;;;0.80;;
61785;SDS011;47692;53.714;11.372;2024-03-23T13:55:57;1.50;;;0.60;;
61785;SDS011;47692;53.714;11.372;2024-03-23T13:58:23;2.97;;;0.75;;
61785;SDS011;47692;53.714;11.372;2024-03-23T14:00:51;3.70;;;1.20;;
61785;SDS011;47692;53.714;11.372;2024-03-23T14:03:17;5.03;;;2.50;;
61785;SDS011;47692;53.714;11.372;2024-03-23T14:05:45;2.70;;;1.00;;
61785;SDS011;47692;53.714;11.372;2024-03-23T14:08:12;4.40;;;1.10;;
61785;SDS011;47692;53.714;11.372;2024-03-23T14:10:40;2.55;;;1.30;;
61785;SDS011;47692;53.714;11.372;2024-03-23T14:13:06;2.67;;;0.80;;
61785;SDS011;47692;53.714;11.372;2024-03-23T14:15:31;2.85;;;0.80;;
61785;SDS011;47692;53.714;11.372;2024-03-23T14:17:57;2.05;;;0.73;;
61785;SDS011;47692;53.714;11.372;2024-03-23T14:20:23;2.58;;;0.93;;
61785;SDS011;47692;53.714;11.372;2024-03-23T14:22:49;3.83;;;1.05;;
61785;SDS011;47692;53.714;11.372;2024-03-23T14:25:14;5.88;;;0.88;;
61785;SDS011;47692;53.714;11.372;2024-03-23T14:27:40;4.57;;;0.98;;
61785;SDS011;47692;53.714;11.372;2024-03-23T14:30:05;3.35;;;1.15;;
61785;SDS011;47692;53.714;11.372;2024-03-23T14:32:31;3.50;;;0.90;;
61785;SDS011;47692;53.714;11.372;2024-03-23T14:35:02;3.72;;;1.00;;
61785;SDS011;47692;53.714;11.372;2024-03-23T14:37:36;3.15;;;0.85;;
61785;SDS011;47692;53.714;11.372;2024-03-23T14:40:01;3.58;;;1.30;;
61785;SDS011;47692;53.714;11.372;2024-03-23T14:42:27;5.68;;;1.35;;
61785;SDS011;47692;53.714;11.372;2024-03-23T14:44:53;2.17;;;0.80;;
61785;SDS011;47692;53.714;11.372;2024-03-23T14:47:18;2.72;;;0.80;;
61785;SDS011;47692;53.714;11.372;2024-03-23T14:49:44;3.15;;;0.98;;
61785;SDS011;47692;53.714;11.372;2024-03-23T14:52:15;2.65;;;1.33;;
61785;SDS011;47692;53.714;11.372;2024-03-23T14:54:40;2.97;;;0.90;;
61785;SDS011;47692;53.714;11.372;2024-03-23T14:57:06;1.80;;;0.60;;
61785;SDS011;47692;53.714;11.372;2024-03-23T14:59:34;2.47;;;1.30;;
61785;SDS011;47692;53.714;11.372;2024-03-23T15:01:59;1.67;;;0.95;;
61785;SDS011;47692;53.714;11.372;2024-03-23T15:04:25;2.28;;;0.77;;
61785;SDS011;47692;53.714;11.372;2024-03-23T15:06:50;4.47;;;0.93;;
61785;SDS011;47692;53.714;11.372;2024-03-23T15:09:15;2.58;;;0.85;;
61785;SDS011;47692;53.714;11.372;2024-03-23T15:11:41;2.47;;;0.60;;
61785;SDS011;47692;53.714;11.372;2024-03-23T15:14:06;2.33;;;0.95;;
61785;SDS011;47692;53.714;11.372;2024-03-23T15:16:32;2.70;;;0.65;;
61785;SDS011;47692;53.714;11.372;2024-03-23T15:18:58;4.72;;;0.80;;
61785;SDS011;47692;53.714;11.372;2024-03-23T15:21:23;0.93;;;0.30;;
61785;SDS011;47692;53.714;11.372;2024-03-23T15:23:48;2.40;;;0.40;;
61785;SDS011;47692;53.714;11.372;2024-03-23T15:26:14;2.30;;;0.57;;
61785;SDS011;47692;53.714;11.372;2024-03-23T15:28:40;2.88;;;0.80;;
61785;SDS011;47692;53.714;11.372;2024-03-23T15:31:08;3.75;;;0.70;;
61785;SDS011;47692;53.714;11.372;2024-03-23T15:33:37;1.83;;;0.70;;